createdAt,value
2018-11-14T16:52:05.220Z,7.62
2018-11-14T16:53:04.763Z,7.60
2018-11-14T16:54:04.705Z,7.62
2018-11-14T16:55:04.765Z,7.60
2018-11-14T16:56:04.628Z,7.58
2018-11-14T16:57:04.633Z,7.60
2018-11-14T17:09:07.703Z,7.41
2018-11-14T17:10:07.333Z,7.36
2018-11-14T17:11:07.294Z,7.33
2018-11-14T17:12:07.364Z,7.30
2018-11-14T17:34:00.620Z,6.87
2018-11-14T17:35:00.157Z,6.86
2018-11-14T17:36:00.105Z,6.86
2018-11-14T17:37:00.050Z,6.76
2018-11-14T17:37:59.992Z,6.89
2018-11-14T17:38:59.977Z,6.71
2018-11-14T17:39:59.973Z,6.72
2018-11-14T17:40:59.950Z,6.75
2018-11-14T17:42:00.073Z,6.76
2018-11-14T17:43:00.040Z,6.75
2018-11-14T17:43:59.926Z,6.69
2018-11-14T17:44:59.903Z,6.68
2018-11-14T17:45:59.887Z,6.71
2018-11-14T17:46:59.880Z,6.58
2018-11-14T17:47:59.863Z,6.68
2018-11-14T17:48:59.902Z,6.65
2018-11-14T17:49:59.845Z,6.65
2018-11-14T17:50:59.835Z,6.58
2018-11-14T17:51:59.820Z,6.64
2018-11-14T17:52:59.933Z,6.63
2018-11-14T17:53:59.799Z,6.57
2018-11-14T17:54:59.807Z,6.68
2018-11-14T17:55:59.785Z,6.57
2018-11-14T17:56:59.801Z,6.51
2018-11-14T17:57:59.819Z,6.51
2018-11-14T17:58:59.753Z,6.54
2018-11-14T17:59:59.767Z,6.54
2018-11-14T18:00:59.815Z,6.54
2018-11-14T18:01:59.727Z,6.39
2018-11-14T18:02:59.772Z,6.39
2018-11-14T18:03:59.705Z,6.39
2018-11-14T18:04:59.694Z,6.43
2018-11-14T18:05:59.674Z,6.32
2018-11-14T18:06:59.699Z,6.38
2018-11-14T18:07:59.650Z,6.35
2018-11-14T18:08:59.648Z,6.38
2018-11-14T18:09:59.638Z,6.28
2018-11-14T18:10:59.637Z,6.30
2018-11-14T18:11:59.656Z,6.27
2018-11-14T18:12:59.598Z,6.24
2018-11-14T18:13:59.602Z,6.27
2018-11-14T18:14:59.584Z,6.21
2018-11-14T18:15:59.574Z,6.14
2018-11-14T18:16:59.572Z,6.10
2018-11-14T18:17:59.544Z,6.08
2018-11-14T18:18:59.536Z,6.13
2018-11-14T18:19:59.567Z,5.99
2018-11-14T18:20:59.514Z,5.99
2018-11-14T18:21:59.508Z,5.98
2018-11-14T18:22:59.554Z,6.06
2018-11-14T18:23:59.479Z,6.02
2018-11-14T18:24:59.472Z,5.99
2018-11-14T18:25:59.500Z,5.96
2018-11-14T18:26:59.451Z,5.92
2018-11-14T18:27:59.446Z,5.88
2018-11-14T18:28:59.449Z,5.93
2018-11-14T18:29:59.480Z,5.90
2018-11-14T18:30:59.403Z,5.93
2018-11-14T18:31:59.413Z,5.95
2018-11-14T18:32:59.413Z,5.83
2018-11-14T18:33:59.413Z,5.81
2018-11-14T18:34:59.367Z,5.87
2018-11-14T18:35:59.366Z,5.84
2018-11-14T18:36:59.342Z,5.69
2018-11-14T18:37:59.335Z,5.73
2018-11-14T18:38:59.335Z,5.74
2018-11-14T18:39:59.328Z,5.77
2018-11-14T18:40:59.318Z,5.74
2018-11-14T18:41:59.288Z,5.73
2018-11-14T18:42:59.276Z,5.67
2018-11-14T18:43:59.306Z,5.67
2018-11-14T18:44:59.274Z,5.58
2018-11-14T18:45:59.276Z,5.66
2018-11-14T18:46:59.234Z,5.66
2018-11-14T18:47:59.225Z,5.60
2018-11-14T18:48:59.209Z,5.65
2018-11-14T18:49:59.217Z,5.63
2018-11-14T18:50:59.193Z,5.59
2018-11-14T18:51:59.309Z,5.59
2018-11-14T18:52:59.196Z,5.69
2018-11-14T18:53:59.175Z,5.66
2018-11-14T18:54:59.379Z,5.60
2018-11-14T18:55:59.202Z,5.60
2018-11-14T18:56:59.129Z,5.56
2018-11-14T18:57:59.284Z,5.56
2018-11-14T18:58:59.107Z,5.59
2018-11-14T18:59:59.093Z,5.59
2018-11-14T19:00:59.127Z,5.42
2018-11-14T19:01:59.075Z,5.41
2018-11-14T19:02:59.066Z,5.52
2018-11-14T19:03:59.047Z,5.41
2018-11-14T19:04:59.034Z,5.44
2018-11-14T19:05:59.069Z,5.47
2018-11-14T19:06:59.104Z,5.44
2018-11-14T19:07:59.008Z,5.40
2018-11-14T19:08:59.012Z,5.45
2018-11-14T19:09:59.033Z,5.40
2018-11-14T19:11:07.383Z,5.32
2018-11-14T19:11:59.094Z,5.30
2018-11-14T19:12:59.009Z,5.38
2018-11-14T19:13:59.056Z,5.30
2018-11-14T19:14:59.065Z,5.37
2018-11-14T19:15:58.983Z,5.35
2018-11-14T19:16:58.904Z,5.26
2018-11-14T19:17:58.897Z,5.30
2018-11-14T19:18:58.968Z,5.27
2018-11-14T19:19:58.881Z,5.27
2018-11-14T19:20:58.861Z,5.24
2018-11-14T19:21:58.903Z,5.23
2018-11-14T19:22:58.843Z,5.23
2018-11-14T19:23:58.832Z,5.24
2018-11-14T19:24:58.825Z,5.22
2018-11-14T19:25:58.814Z,5.20
2018-11-14T19:26:58.816Z,5.17
2018-11-14T19:27:58.803Z,5.22
2018-11-14T19:28:58.782Z,5.24
2018-11-14T19:29:58.768Z,5.19
2018-11-14T19:30:58.758Z,5.09
2018-11-14T19:31:58.777Z,5.17
2018-11-14T19:32:58.772Z,5.09
2018-11-14T19:33:58.720Z,5.17
2018-11-14T19:34:58.709Z,5.12
2018-11-14T19:36:01.151Z,5.09
2018-11-14T19:36:58.736Z,5.17
2018-11-14T19:37:58.678Z,5.14
2018-11-14T19:38:58.669Z,5.17
2018-11-14T19:39:58.689Z,5.12
2018-11-14T19:40:58.667Z,5.08
2018-11-14T19:41:58.634Z,5.06
2018-11-14T19:42:58.705Z,5.11
2018-11-14T19:43:58.644Z,5.12
2018-11-14T19:44:58.605Z,5.14
2018-11-14T19:45:58.609Z,5.09
2018-11-14T19:46:58.614Z,4.99
2018-11-14T19:47:58.590Z,4.99
2018-11-14T19:48:58.602Z,5.02
2018-11-14T19:49:58.554Z,5.02
2018-11-14T19:50:58.543Z,5.02
2018-11-14T19:51:58.542Z,4.99
2018-11-14T19:52:58.525Z,4.99
2018-11-14T19:53:58.532Z,5.01
2018-11-14T19:54:58.538Z,5.09
2018-11-14T19:55:58.566Z,5.02
2018-11-14T19:56:58.477Z,4.94
2018-11-14T19:57:58.470Z,4.94
2018-11-14T19:58:58.459Z,5.04
2018-11-14T19:59:58.475Z,4.99
2018-11-14T20:00:58.460Z,4.90
2018-11-14T20:01:58.481Z,4.96
2018-11-14T20:02:58.453Z,4.93
2018-11-14T20:03:58.404Z,4.91
2018-11-14T20:04:58.389Z,4.88
2018-11-14T20:05:58.387Z,4.86
2018-11-14T20:06:58.366Z,4.93
2018-11-14T20:07:58.390Z,4.90
2018-11-14T20:08:58.341Z,4.87
2018-11-14T20:09:58.350Z,4.90
2018-11-14T20:10:58.348Z,4.90
2018-11-14T20:11:58.307Z,4.87
2018-11-14T20:12:58.301Z,4.87
2018-11-14T20:13:58.306Z,4.86
2018-11-14T20:14:58.274Z,4.91
2018-11-14T20:15:58.285Z,4.88
2018-11-14T20:16:58.258Z,4.88
2018-11-14T20:17:58.249Z,4.94
2018-11-14T20:18:58.231Z,4.91
2018-11-14T20:19:58.273Z,4.88
2018-11-14T20:20:58.244Z,4.88
2018-11-14T20:21:58.195Z,4.84
2018-11-14T20:22:58.190Z,4.84
2018-11-14T20:23:58.237Z,4.80
2018-11-14T20:24:58.176Z,4.74
2018-11-14T20:25:58.312Z,4.74
2018-11-14T20:26:58.164Z,4.80
2018-11-14T20:27:58.131Z,4.71
2018-11-14T20:28:58.124Z,4.87
2018-11-14T20:29:58.121Z,4.84
2018-11-14T20:30:58.097Z,4.77
2018-11-14T20:31:58.184Z,4.84
2018-11-14T20:32:58.096Z,4.83
2018-11-14T20:33:58.069Z,4.77
2018-11-14T20:34:58.054Z,4.80
2018-11-14T20:35:58.050Z,4.80
2018-11-14T20:36:58.043Z,4.69
2018-11-14T20:37:58.047Z,4.68
2018-11-14T20:38:58.022Z,4.62
2018-11-14T20:39:57.997Z,4.68
2018-11-14T20:40:57.992Z,4.64
2018-11-14T20:41:57.994Z,4.68
2018-11-14T20:42:58.112Z,4.61
2018-11-14T20:43:57.964Z,4.62
2018-11-14T20:44:57.993Z,4.57
2018-11-14T20:45:57.957Z,4.53
2018-11-14T20:46:57.926Z,4.57
2018-11-14T20:47:57.922Z,4.56
2018-11-14T20:48:57.922Z,4.53
2018-11-14T20:49:57.917Z,4.46
2018-11-14T20:50:57.910Z,4.62
2018-11-14T20:51:57.875Z,4.56
2018-11-14T20:52:57.865Z,4.53
2018-11-14T20:53:57.877Z,4.51
2018-11-14T20:54:57.843Z,4.54
2018-11-14T20:55:57.854Z,4.57
2018-11-14T20:56:57.865Z,4.56
2018-11-14T20:57:57.825Z,4.53
2018-11-14T20:58:57.794Z,4.50
2018-11-14T20:59:57.786Z,4.51
2018-11-14T21:00:57.774Z,4.61
2018-11-14T21:01:57.801Z,4.57
2018-11-14T21:02:57.773Z,4.65
2018-11-14T21:03:57.743Z,4.67
2018-11-14T21:04:57.727Z,4.67
2018-11-14T21:05:57.721Z,4.75
2018-11-14T21:06:57.716Z,4.75
2018-11-14T21:07:57.775Z,4.74
2018-11-14T21:08:57.710Z,4.72
2018-11-14T21:09:57.677Z,4.68
2018-11-14T21:10:57.669Z,4.62
2018-11-14T21:11:57.651Z,4.67
2018-11-14T21:12:57.648Z,4.67
2018-11-14T21:13:57.643Z,4.65
2018-11-14T21:14:57.660Z,4.71
2018-11-14T21:15:57.655Z,4.69
2018-11-14T21:16:57.600Z,4.71
2018-11-14T21:17:57.589Z,4.59
2018-11-14T21:18:57.610Z,4.62
2018-11-14T21:19:57.576Z,4.59
2018-11-14T21:20:57.565Z,4.57
2018-11-14T21:21:57.550Z,4.50
2018-11-14T21:22:57.613Z,4.54
2018-11-14T21:23:57.545Z,4.59
2018-11-14T21:24:57.572Z,4.53
2018-11-14T21:25:57.505Z,4.50
2018-11-14T21:26:57.485Z,4.44
2018-11-14T21:27:57.483Z,4.36
2018-11-14T21:28:57.475Z,4.50
2018-11-14T21:29:57.482Z,4.39
2018-11-14T21:30:57.458Z,4.39
2018-11-14T21:31:57.432Z,4.36
2018-11-14T21:32:57.427Z,4.43
2018-11-14T21:33:57.412Z,4.29
2018-11-14T21:34:57.416Z,4.31
2018-11-14T21:35:57.425Z,4.35
2018-11-14T21:36:57.428Z,4.32
2018-11-14T21:37:57.380Z,4.29
2018-11-14T21:38:57.365Z,4.38
2018-11-14T21:39:57.354Z,4.31
2018-11-14T21:40:57.336Z,4.26
2018-11-14T21:41:57.366Z,4.25
2018-11-14T21:42:57.381Z,4.29
2018-11-14T21:43:57.315Z,4.32
2018-11-14T21:44:57.330Z,4.32
2018-11-14T21:45:57.292Z,4.28
2018-11-14T21:46:57.272Z,4.25
2018-11-14T21:47:57.320Z,4.25
2018-11-14T21:48:57.250Z,4.20
2018-11-14T21:49:57.242Z,4.13
2018-11-14T21:50:57.230Z,4.18
2018-11-14T21:51:57.245Z,4.24
2018-11-14T21:52:57.224Z,4.14
2018-11-14T21:53:57.199Z,4.18
2018-11-14T21:54:57.206Z,4.14
2018-11-14T21:55:57.173Z,4.11
2018-11-14T21:56:57.161Z,4.08
2018-11-14T21:57:57.152Z,4.08
2018-11-14T21:58:57.158Z,4.06
2018-11-14T21:59:57.273Z,4.06
2018-11-14T22:00:57.128Z,4.08
2018-11-14T22:01:57.136Z,4.02
2018-11-14T22:02:57.094Z,4.02
2018-11-14T22:03:57.102Z,4.07
2018-11-14T22:04:57.072Z,4.02
2018-11-14T22:05:57.149Z,3.98
2018-11-14T22:06:57.156Z,3.92
2018-11-14T22:07:57.046Z,3.92
2018-11-14T22:08:57.025Z,3.92
2018-11-14T22:09:57.027Z,3.96
2018-11-14T22:10:57.016Z,4.06
2018-11-14T22:11:57.024Z,4.00
2018-11-14T22:12:56.997Z,3.99
2018-11-14T22:13:56.994Z,3.95
2018-11-14T22:14:56.995Z,4.00
2018-11-14T22:15:56.989Z,3.95
2018-11-14T22:16:56.995Z,3.99
2018-11-14T22:17:56.985Z,3.92
2018-11-14T22:18:57.014Z,4.00
2018-11-14T22:19:56.962Z,3.90
2018-11-14T22:20:56.928Z,3.90
2018-11-14T22:21:56.914Z,3.81
2018-11-14T22:22:56.943Z,3.90
2018-11-14T22:23:56.877Z,3.81
2018-11-14T22:24:56.860Z,3.82
2018-11-14T22:25:56.878Z,3.77
2018-11-14T22:26:56.878Z,3.70
2018-11-14T22:27:56.895Z,3.74
2018-11-14T22:28:56.812Z,3.72
2018-11-14T22:29:56.886Z,3.77
2018-11-14T22:30:56.820Z,3.74
2018-11-14T22:31:56.777Z,3.70
2018-11-14T22:32:56.792Z,3.72
2018-11-14T22:33:56.780Z,3.72
2018-11-14T22:34:56.893Z,3.62
2018-11-14T22:35:56.747Z,3.63
2018-11-14T22:36:56.733Z,3.67
2018-11-14T22:37:56.716Z,3.59
2018-11-14T22:38:56.720Z,3.62
2018-11-14T22:39:56.696Z,3.56
2018-11-14T22:40:56.676Z,3.49
2018-11-14T22:41:56.711Z,3.50
2018-11-14T22:42:56.682Z,3.46
2018-11-14T22:43:56.663Z,3.49
2018-11-14T22:44:56.638Z,3.41
2018-11-14T22:45:56.624Z,3.46
2018-11-14T22:46:56.614Z,3.35
2018-11-14T22:47:56.628Z,3.30
2018-11-14T22:48:56.623Z,3.41
2018-11-14T22:49:56.586Z,3.41
2018-11-14T22:50:56.570Z,3.26
2018-11-14T22:51:56.566Z,3.30
2018-11-14T22:52:56.548Z,3.28
2018-11-14T22:53:56.551Z,3.23
2018-11-14T22:54:56.555Z,3.20
2018-11-14T22:55:56.515Z,3.13
2018-11-14T22:56:56.502Z,3.13
2018-11-14T22:57:56.494Z,3.10
2018-11-14T22:58:56.482Z,3.15
2018-11-14T22:59:56.484Z,3.05
2018-11-14T23:00:56.475Z,3.13
2018-11-14T23:01:56.457Z,3.13
2018-11-14T23:02:56.440Z,3.08
2018-11-14T23:03:56.424Z,3.08
2018-11-14T23:04:56.471Z,3.02
2018-11-14T23:05:56.445Z,3.01
2018-11-14T23:06:56.398Z,3.02
2018-11-14T23:07:56.391Z,3.02
2018-11-14T23:08:56.382Z,2.97
2018-11-14T23:09:56.447Z,2.98
2018-11-14T23:10:56.370Z,3.01
2018-11-14T23:11:56.385Z,2.97
2018-11-14T23:12:56.328Z,2.94
2018-11-14T23:13:56.322Z,2.86
2018-11-14T23:14:56.305Z,2.86
2018-11-14T23:15:56.341Z,2.86
2018-11-14T23:16:56.286Z,2.74
2018-11-14T23:17:56.294Z,2.80
2018-11-14T23:18:56.277Z,2.71
2018-11-14T23:19:56.258Z,2.80
2018-11-14T23:20:56.248Z,2.76
2018-11-14T23:21:56.253Z,2.83
2018-11-14T23:22:56.295Z,2.73
2018-11-14T23:23:56.208Z,2.69
2018-11-14T23:24:56.203Z,2.65
2018-11-14T23:25:56.218Z,2.66
2018-11-14T23:26:56.197Z,2.68
2018-11-14T23:27:56.201Z,2.66
2018-11-14T23:28:56.165Z,2.65
2018-11-14T23:29:56.149Z,2.63
2018-11-14T23:30:56.138Z,2.63
2018-11-14T23:31:56.158Z,2.59
2018-11-14T23:32:56.126Z,2.59
2018-11-14T23:33:56.106Z,2.51
2018-11-14T23:34:56.098Z,2.53
2018-11-14T23:35:56.082Z,2.51
2018-11-14T23:36:56.066Z,2.55
2018-11-14T23:37:56.103Z,2.53
2018-11-14T23:38:56.050Z,2.53
2018-11-14T23:39:56.054Z,2.45
2018-11-14T23:40:56.027Z,2.53
2018-11-14T23:41:56.016Z,2.51
2018-11-14T23:42:56.026Z,2.48
2018-11-14T23:43:55.999Z,2.51
2018-11-14T23:44:55.995Z,2.37
2018-11-14T23:45:55.975Z,2.40
2018-11-14T23:46:55.968Z,2.41
2018-11-14T23:47:56.013Z,2.41
2018-11-14T23:48:55.957Z,2.38
2018-11-14T23:49:55.933Z,2.30
2018-11-14T23:50:55.971Z,2.29
2018-11-14T23:51:55.911Z,2.38
2018-11-14T23:52:55.929Z,2.38
2018-11-14T23:53:55.889Z,2.38
2018-11-14T23:54:55.896Z,2.32
2018-11-14T23:55:55.897Z,2.36
2018-11-14T23:56:55.857Z,2.22
2018-11-14T23:57:55.854Z,2.22
2018-11-14T23:58:55.866Z,2.25
2018-11-14T23:59:55.832Z,2.14
